📊 Raw Sensor Data

Showing records 46151 to 46175 of 85,065 total

ID Distance (ft) Battery V Battery A Int Temp (°F) Int Humid (%) Ext Temp (°F) Solar V RSSI SNR Time Stamp
38927 -- 4.09 0 62 44 58 5.10 -75 8 04/26/2025 04:30 PM
38926 -- 4.00 0 64 44 59 5.10 -75 8 04/26/2025 04:15 PM
38925 -- 4.13 0 64 45 60 5.10 -75 8 04/26/2025 04:00 PM
38924 -- 4.13 0 65 46 60 5.10 -75 9 04/26/2025 03:46 PM
38923 -- 4.00 0 69 44 59 5.10 -76 8 04/26/2025 03:30 PM
38922 -- 4.00 0 74 41 64 5.10 -75 8 04/26/2025 03:16 PM
38921 -- 4.09 0 70 42 66 5.10 -75 8 04/26/2025 03:00 PM
38920 -- 4.00 0 68 44 60 5.10 -75 8 04/26/2025 02:45 PM
38919 -- 4.00 0 70 43 62 5.10 -76 8 04/26/2025 02:30 PM
38918 -- 4.00 0 70 43 62 5.10 -75 8 04/26/2025 02:15 PM
38917 -- 4.00 0 73 40 67 5.10 -77 8 04/26/2025 02:00 PM
38916 -- 4.00 0 71 40 65 5.10 -76 8 04/26/2025 01:45 PM
38915 -- 4.00 0 69 41 63 5.10 -76 9 04/26/2025 01:30 PM
38914 -- 4.01 0 67 41 62 5.10 -76 9 04/26/2025 01:15 PM
38913 -- 4.00 0 65 41 62 5.10 -74 8 04/26/2025 01:00 PM
38912 -- 4.00 0 63 41 62 5.10 -80 8 04/26/2025 12:45 PM
38911 15.4 4.00 0 61 42 60 5.10 -79 6 04/26/2025 12:30 PM
38910 15.4 4.00 0 60 41 59 5.10 -80 7 04/26/2025 12:15 PM
38909 15.4 4.00 0 59 41 58 5.10 -79 7 04/26/2025 12:00 PM
38908 15.3 4.13 0 58 41 58 5.10 -79 7 04/26/2025 11:45 AM
38907 -- 4.13 0 57 41 57 5.10 -79 8 04/26/2025 11:30 AM
38906 -- 4.00 0 55 42 55 5.10 -80 7 04/26/2025 11:15 AM
38905 -- 4.13 0 55 42 55 5.10 -80 7 04/26/2025 11:00 AM
38904 -- 4.00 0 54 41 54 5.10 -80 7 04/26/2025 10:45 AM
38903 15.3 4.00 0 53 41 54 5.10 -81 5 04/26/2025 10:30 AM